sensor_id;sensor_type;location;lat;lon;timestamp;P1;durP1;ratioP1;P2;durP2;ratioP2
36423;SDS011;22458;45.328;9.514;2022-12-07T00:01:14;12.68;;;9.73;;
36423;SDS011;22458;45.328;9.514;2022-12-07T00:03:43;12.15;;;8.65;;
36423;SDS011;22458;45.328;9.514;2022-12-07T00:06:11;17.23;;;8.43;;
36423;SDS011;22458;45.328;9.514;2022-12-07T00:08:38;11.55;;;8.43;;
36423;SDS011;22458;45.328;9.514;2022-12-07T00:11:08;9.73;;;8.10;;
36423;SDS011;22458;45.328;9.514;2022-12-07T00:13:36;10.35;;;8.32;;
36423;SDS011;22458;45.328;9.514;2022-12-07T00:16:13;9.27;;;8.27;;
36423;SDS011;22458;45.328;9.514;2022-12-07T00:18:41;11.23;;;7.57;;
36423;SDS011;22458;45.328;9.514;2022-12-07T00:23:37;9.15;;;7.50;;
36423;SDS011;22458;45.328;9.514;2022-12-07T00:26:08;10.63;;;7.88;;
36423;SDS011;22458;45.328;9.514;2022-12-07T00:28:36;10.02;;;7.85;;
36423;SDS011;22458;45.328;9.514;2022-12-07T00:31:09;12.13;;;7.65;;
36423;SDS011;22458;45.328;9.514;2022-12-07T00:33:36;16.30;;;9.25;;
36423;SDS011;22458;45.328;9.514;2022-12-07T00:36:04;14.82;;;7.93;;
36423;SDS011;22458;45.328;9.514;2022-12-07T00:38:33;20.83;;;9.32;;
36423;SDS011;22458;45.328;9.514;2022-12-07T00:41:01;35.58;;;8.10;;
36423;SDS011;22458;45.328;9.514;2022-12-07T00:43:29;14.32;;;9.07;;
36423;SDS011;22458;45.328;9.514;2022-12-07T00:45:55;10.73;;;7.55;;
36423;SDS011;22458;45.328;9.514;2022-12-07T00:48:21;16.00;;;7.35;;
36423;SDS011;22458;45.328;9.514;2022-12-07T00:50:48;22.75;;;9.07;;
36423;SDS011;22458;45.328;9.514;2022-12-07T00:53:14;10.35;;;7.35;;
36423;SDS011;22458;45.328;9.514;2022-12-07T00:55:40;11.27;;;7.00;;
36423;SDS011;22458;45.328;9.514;2022-12-07T00:58:07;11.75;;;8.75;;
36423;SDS011;22458;45.328;9.514;2022-12-07T01:00:34;10.43;;;7.95;;
36423;SDS011;22458;45.328;9.514;2022-12-07T01:03:02;9.65;;;7.90;;
36423;SDS011;22458;45.328;9.514;2022-12-07T01:05:28;9.32;;;7.35;;
36423;SDS011;22458;45.328;9.514;2022-12-07T01:07:54;11.43;;;8.77;;
36423;SDS011;22458;45.328;9.514;2022-12-07T01:10:20;8.65;;;7.43;;
36423;SDS011;22458;45.328;9.514;2022-12-07T01:12:45;10.85;;;7.57;;
36423;SDS011;22458;45.328;9.514;2022-12-07T01:15:11;11.80;;;8.60;;
36423;SDS011;22458;45.328;9.514;2022-12-07T01:17:37;9.05;;;7.78;;
36423;SDS011;22458;45.328;9.514;2022-12-07T01:20:03;10.30;;;8.05;;
36423;SDS011;22458;45.328;9.514;2022-12-07T01:22:29;10.60;;;7.47;;
36423;SDS011;22458;45.328;9.514;2022-12-07T01:24:55;10.85;;;7.40;;
36423;SDS011;22458;45.328;9.514;2022-12-07T01:27:21;11.20;;;7.70;;
36423;SDS011;22458;45.328;9.514;2022-12-07T01:29:46;9.48;;;7.50;;
36423;SDS011;22458;45.328;9.514;2022-12-07T01:32:12;11.65;;;7.82;;
36423;SDS011;22458;45.328;9.514;2022-12-07T01:34:38;11.27;;;7.80;;
36423;SDS011;22458;45.328;9.514;2022-12-07T01:37:04;9.85;;;8.27;;
36423;SDS011;22458;45.328;9.514;2022-12-07T01:39:29;11.48;;;7.85;;
36423;SDS011;22458;45.328;9.514;2022-12-07T01:41:55;17.75;;;8.45;;
36423;SDS011;22458;45.328;9.514;2022-12-07T01:47:02;11.65;;;8.13;;
36423;SDS011;22458;45.328;9.514;2022-12-07T01:54:41;18.40;;;8.10;;
36423;SDS011;22458;45.328;9.514;2022-12-07T01:57:09;13.40;;;8.60;;
36423;SDS011;22458;45.328;9.514;2022-12-07T01:59:36;12.32;;;9.18;;
36423;SDS011;22458;45.328;9.514;2022-12-07T02:02:04;12.98;;;9.10;;
36423;SDS011;22458;45.328;9.514;2022-12-07T02:04:35;11.00;;;8.13;;
36423;SDS011;22458;45.328;9.514;2022-12-07T02:07:01;20.10;;;9.60;;
36423;SDS011;22458;45.328;9.514;2022-12-07T02:09:28;10.90;;;8.20;;
36423;SDS011;22458;45.328;9.514;2022-12-07T02:11:54;14.50;;;9.40;;
36423;SDS011;22458;45.328;9.514;2022-12-07T02:14:21;22.23;;;10.90;;
36423;SDS011;22458;45.328;9.514;2022-12-07T02:16:49;11.93;;;9.27;;
36423;SDS011;22458;45.328;9.514;2022-12-07T02:41:37;9.38;;;8.20;;
36423;SDS011;22458;45.328;9.514;2022-12-07T02:44:10;8.90;;;8.00;;
36423;SDS011;22458;45.328;9.514;2022-12-07T02:46:44;9.27;;;7.50;;
36423;SDS011;22458;45.328;9.514;2022-12-07T02:49:21;8.07;;;7.28;;
36423;SDS011;22458;45.328;9.514;2022-12-07T02:51:49;9.98;;;7.82;;
36423;SDS011;22458;45.328;9.514;2022-12-07T02:54:17;10.70;;;8.23;;
36423;SDS011;22458;45.328;9.514;2022-12-07T03:07:00;10.98;;;7.93;;
36423;SDS011;22458;45.328;9.514;2022-12-07T03:10:03;9.90;;;8.27;;
36423;SDS011;22458;45.328;9.514;2022-12-07T03:12:32;12.60;;;8.68;;
36423;SDS011;22458;45.328;9.514;2022-12-07T03:15:15;11.73;;;8.60;;
36423;SDS011;22458;45.328;9.514;2022-12-07T03:17:47;9.82;;;8.35;;
36423;SDS011;22458;45.328;9.514;2022-12-07T03:20:15;16.52;;;8.57;;
36423;SDS011;22458;45.328;9.514;2022-12-07T03:22:45;12.52;;;8.52;;
36423;SDS011;22458;45.328;9.514;2022-12-07T03:25:13;10.70;;;8.13;;
36423;SDS011;22458;45.328;9.514;2022-12-07T03:27:46;9.55;;;7.93;;
36423;SDS011;22458;45.328;9.514;2022-12-07T03:30:22;9.23;;;8.25;;
36423;SDS011;22458;45.328;9.514;2022-12-07T03:33:03;12.55;;;8.07;;
36423;SDS011;22458;45.328;9.514;2022-12-07T03:35:37;12.65;;;9.32;;
36423;SDS011;22458;45.328;9.514;2022-12-07T03:38:11;10.48;;;8.40;;
36423;SDS011;22458;45.328;9.514;2022-12-07T03:40:44;12.82;;;8.82;;
36423;SDS011;22458;45.328;9.514;2022-12-07T03:43:22;12.45;;;9.23;;
36423;SDS011;22458;45.328;9.514;2022-12-07T03:46:09;12.90;;;9.45;;
36423;SDS011;22458;45.328;9.514;2022-12-07T03:49:04;12.85;;;9.77;;
36423;SDS011;22458;45.328;9.514;2022-12-07T03:51:59;14.88;;;9.52;;
36423;SDS011;22458;45.328;9.514;2022-12-07T03:56:54;26.98;;;9.68;;
36423;SDS011;22458;45.328;9.514;2022-12-07T03:59:22;17.73;;;9.75;;
36423;SDS011;22458;45.328;9.514;2022-12-07T04:01:53;12.70;;;9.80;;
36423;SDS011;22458;45.328;9.514;2022-12-07T04:04:21;14.50;;;9.63;;
36423;SDS011;22458;45.328;9.514;2022-12-07T04:06:48;13.80;;;9.57;;
36423;SDS011;22458;45.328;9.514;2022-12-07T04:09:14;13.35;;;9.57;;
36423;SDS011;22458;45.328;9.514;2022-12-07T04:11:40;15.80;;;10.57;;
36423;SDS011;22458;45.328;9.514;2022-12-07T04:14:06;12.98;;;9.65;;
36423;SDS011;22458;45.328;9.514;2022-12-07T04:16:44;18.90;;;9.70;;
36423;SDS011;22458;45.328;9.514;2022-12-07T04:19:23;21.40;;;10.82;;
36423;SDS011;22458;45.328;9.514;2022-12-07T04:21:50;16.50;;;9.48;;
36423;SDS011;22458;45.328;9.514;2022-12-07T04:24:16;16.45;;;8.80;;
36423;SDS011;22458;45.328;9.514;2022-12-07T04:26:42;19.25;;;11.23;;
36423;SDS011;22458;45.328;9.514;2022-12-07T04:29:09;13.75;;;8.90;;
36423;SDS011;22458;45.328;9.514;2022-12-07T04:31:35;12.82;;;9.73;;
36423;SDS011;22458;45.328;9.514;2022-12-07T04:34:01;13.75;;;8.82;;
36423;SDS011;22458;45.328;9.514;2022-12-07T04:36:28;10.73;;;8.65;;
36423;SDS011;22458;45.328;9.514;2022-12-07T04:38:54;11.63;;;8.70;;
36423;SDS011;22458;45.328;9.514;2022-12-07T04:41:20;16.38;;;8.40;;
36423;SDS011;22458;45.328;9.514;2022-12-07T04:43:53;22.30;;;8.68;;
36423;SDS011;22458;45.328;9.514;2022-12-07T04:46:20;11.07;;;9.23;;
36423;SDS011;22458;45.328;9.514;2022-12-07T04:48:47;13.50;;;9.20;;
36423;SDS011;22458;45.328;9.514;2022-12-07T04:51:14;10.38;;;8.82;;
36423;SDS011;22458;45.328;9.514;2022-12-07T04:53:43;9.27;;;7.93;;
36423;SDS011;22458;45.328;9.514;2022-12-07T04:56:09;15.13;;;9.85;;
36423;SDS011;22458;45.328;9.514;2022-12-07T04:58:34;10.65;;;9.15;;
36423;SDS011;22458;45.328;9.514;2022-12-07T05:01:00;11.23;;;8.95;;
36423;SDS011;22458;45.328;9.514;2022-12-07T05:03:26;11.07;;;8.20;;
36423;SDS011;22458;45.328;9.514;2022-12-07T05:05:52;10.07;;;8.05;;
36423;SDS011;22458;45.328;9.514;2022-12-07T05:08:17;11.48;;;9.77;;
36423;SDS011;22458;45.328;9.514;2022-12-07T05:10:43;10.40;;;9.13;;
36423;SDS011;22458;45.328;9.514;2022-12-07T05:13:09;9.43;;;8.07;;
36423;SDS011;22458;45.328;9.514;2022-12-07T05:15:34;11.88;;;9.00;;
36423;SDS011;22458;45.328;9.514;2022-12-07T05:18:00;9.93;;;8.80;;
36423;SDS011;22458;45.328;9.514;2022-12-07T05:20:26;18.15;;;9.70;;
36423;SDS011;22458;45.328;9.514;2022-12-07T05:22:52;11.32;;;8.23;;
36423;SDS011;22458;45.328;9.514;2022-12-07T05:25:17;13.60;;;9.18;;
36423;SDS011;22458;45.328;9.514;2022-12-07T05:27:43;10.05;;;8.65;;
36423;SDS011;22458;45.328;9.514;2022-12-07T05:30:09;9.45;;;8.45;;
36423;SDS011;22458;45.328;9.514;2022-12-07T05:32:35;11.98;;;8.73;;
36423;SDS011;22458;45.328;9.514;2022-12-07T05:35:01;10.52;;;9.02;;
36423;SDS011;22458;45.328;9.514;2022-12-07T05:37:26;12.25;;;9.52;;
36423;SDS011;22458;45.328;9.514;2022-12-07T05:39:52;12.63;;;8.80;;
36423;SDS011;22458;45.328;9.514;2022-12-07T05:42:18;15.18;;;9.02;;
36423;SDS011;22458;45.328;9.514;2022-12-07T05:44:44;11.68;;;9.15;;
36423;SDS011;22458;45.328;9.514;2022-12-07T05:47:11;15.00;;;9.25;;
36423;SDS011;22458;45.328;9.514;2022-12-07T05:49:38;13.27;;;8.88;;
36423;SDS011;22458;45.328;9.514;2022-12-07T05:52:04;9.77;;;8.38;;
36423;SDS011;22458;45.328;9.514;2022-12-07T05:54:31;18.55;;;9.82;;
36423;SDS011;22458;45.328;9.514;2022-12-07T05:56:56;13.93;;;9.02;;
36423;SDS011;22458;45.328;9.514;2022-12-07T05:59:23;13.57;;;9.38;;
36423;SDS011;22458;45.328;9.514;2022-12-07T06:06:44;12.93;;;8.30;;
36423;SDS011;22458;45.328;9.514;2022-12-07T06:09:10;10.73;;;9.18;;
36423;SDS011;22458;45.328;9.514;2022-12-07T06:11:37;12.25;;;9.05;;
36423;SDS011;22458;45.328;9.514;2022-12-07T06:14:23;18.55;;;9.43;;
36423;SDS011;22458;45.328;9.514;2022-12-07T06:16:49;9.20;;;8.25;;
36423;SDS011;22458;45.328;9.514;2022-12-07T06:19:15;12.63;;;8.65;;
36423;SDS011;22458;45.328;9.514;2022-12-07T06:21:41;11.98;;;9.65;;
36423;SDS011;22458;45.328;9.514;2022-12-07T06:24:07;12.57;;;8.63;;
36423;SDS011;22458;45.328;9.514;2022-12-07T06:26:34;16.10;;;8.63;;
36423;SDS011;22458;45.328;9.514;2022-12-07T06:28:59;15.73;;;10.02;;
36423;SDS011;22458;45.328;9.514;2022-12-07T06:31:25;14.82;;;9.07;;
36423;SDS011;22458;45.328;9.514;2022-12-07T06:33:51;12.40;;;8.45;;
36423;SDS011;22458;45.328;9.514;2022-12-07T06:36:17;13.13;;;10.15;;
36423;SDS011;22458;45.328;9.514;2022-12-07T06:38:42;12.38;;;9.60;;
36423;SDS011;22458;45.328;9.514;2022-12-07T06:41:08;15.30;;;10.27;;
36423;SDS011;22458;45.328;9.514;2022-12-07T06:43:34;14.38;;;9.57;;
36423;SDS011;22458;45.328;9.514;2022-12-07T06:46:00;15.00;;;9.65;;
36423;SDS011;22458;45.328;9.514;2022-12-07T06:48:26;14.02;;;9.52;;
36423;SDS011;22458;45.328;9.514;2022-12-07T06:50:51;16.98;;;10.88;;
36423;SDS011;22458;45.328;9.514;2022-12-07T06:53:17;12.45;;;10.05;;
36423;SDS011;22458;45.328;9.514;2022-12-07T06:55:43;25.30;;;10.88;;
36423;SDS011;22458;45.328;9.514;2022-12-07T06:58:09;19.55;;;10.80;;
36423;SDS011;22458;45.328;9.514;2022-12-07T07:00:34;21.95;;;12.30;;
36423;SDS011;22458;45.328;9.514;2022-12-07T07:03:00;26.25;;;11.23;;
36423;SDS011;22458;45.328;9.514;2022-12-07T07:05:26;22.95;;;12.77;;
36423;SDS011;22458;45.328;9.514;2022-12-07T07:07:52;26.10;;;14.02;;
36423;SDS011;22458;45.328;9.514;2022-12-07T07:10:18;16.63;;;11.65;;
36423;SDS011;22458;45.328;9.514;2022-12-07T07:12:44;30.30;;;12.95;;
36423;SDS011;22458;45.328;9.514;2022-12-07T07:15:09;31.65;;;14.43;;
36423;SDS011;22458;45.328;9.514;2022-12-07T07:17:36;20.90;;;14.25;;
36423;SDS011;22458;45.328;9.514;2022-12-07T07:20:02;16.05;;;11.15;;
36423;SDS011;22458;45.328;9.514;2022-12-07T07:22:29;21.05;;;13.43;;
36423;SDS011;22458;45.328;9.514;2022-12-07T07:24:54;20.35;;;13.13;;
36423;SDS011;22458;45.328;9.514;2022-12-07T07:27:20;18.63;;;12.25;;
36423;SDS011;22458;45.328;9.514;2022-12-07T07:29:46;23.45;;;12.93;;
36423;SDS011;22458;45.328;9.514;2022-12-07T07:32:12;20.88;;;11.90;;
36423;SDS011;22458;45.328;9.514;2022-12-07T07:34:37;19.92;;;13.57;;
36423;SDS011;22458;45.328;9.514;2022-12-07T07:37:03;23.17;;;12.85;;
36423;SDS011;22458;45.328;9.514;2022-12-07T07:39:29;23.25;;;14.32;;
36423;SDS011;22458;45.328;9.514;2022-12-07T07:41:54;22.42;;;14.00;;
36423;SDS011;22458;45.328;9.514;2022-12-07T07:44:24;19.13;;;13.45;;
36423;SDS011;22458;45.328;9.514;2022-12-07T07:46:50;17.88;;;12.40;;
36423;SDS011;22458;45.328;9.514;2022-12-07T07:49:16;21.60;;;14.43;;
36423;SDS011;22458;45.328;9.514;2022-12-07T07:51:41;21.27;;;13.70;;
36423;SDS011;22458;45.328;9.514;2022-12-07T07:54:07;26.90;;;14.70;;
36423;SDS011;22458;45.328;9.514;2022-12-07T07:56:33;24.13;;;14.40;;
36423;SDS011;22458;45.328;9.514;2022-12-07T07:58:59;27.10;;;13.93;;
36423;SDS011;22458;45.328;9.514;2022-12-07T08:01:24;26.48;;;14.90;;
36423;SDS011;22458;45.328;9.514;2022-12-07T08:03:52;31.58;;;14.05;;
36423;SDS011;22458;45.328;9.514;2022-12-07T08:06:17;28.15;;;13.93;;
36423;SDS011;22458;45.328;9.514;2022-12-07T08:08:43;26.98;;;14.30;;
36423;SDS011;22458;45.328;9.514;2022-12-07T08:11:09;26.08;;;15.32;;
36423;SDS011;22458;45.328;9.514;2022-12-07T08:13:35;30.80;;;14.85;;
36423;SDS011;22458;45.328;9.514;2022-12-07T08:16:05;30.08;;;15.48;;
36423;SDS011;22458;45.328;9.514;2022-12-07T08:18:36;26.63;;;15.18;;
36423;SDS011;22458;45.328;9.514;2022-12-07T08:21:03;27.25;;;16.10;;
36423;SDS011;22458;45.328;9.514;2022-12-07T08:23:31;35.55;;;17.90;;
36423;SDS011;22458;45.328;9.514;2022-12-07T08:26:03;37.30;;;18.08;;
36423;SDS011;22458;45.328;9.514;2022-12-07T08:28:31;40.63;;;18.35;;
36423;SDS011;22458;45.328;9.514;2022-12-07T08:31:06;40.58;;;18.83;;
36423;SDS011;22458;45.328;9.514;2022-12-07T08:33:35;39.97;;;18.10;;
36423;SDS011;22458;45.328;9.514;2022-12-07T08:36:02;46.40;;;18.40;;
36423;SDS011;22458;45.328;9.514;2022-12-07T08:38:33;39.38;;;17.45;;
36423;SDS011;22458;45.328;9.514;2022-12-07T08:41:00;33.30;;;17.08;;
36423;SDS011;22458;45.328;9.514;2022-12-07T08:43:26;30.42;;;16.10;;
36423;SDS011;22458;45.328;9.514;2022-12-07T08:45:59;37.85;;;17.23;;
36423;SDS011;22458;45.328;9.514;2022-12-07T08:48:28;41.38;;;17.27;;
36423;SDS011;22458;45.328;9.514;2022-12-07T08:50:54;33.90;;;17.13;;
36423;SDS011;22458;45.328;9.514;2022-12-07T08:53:20;32.67;;;16.88;;
36423;SDS011;22458;45.328;9.514;2022-12-07T08:55:46;34.22;;;18.65;;
36423;SDS011;22458;45.328;9.514;2022-12-07T08:58:13;37.75;;;17.98;;
36423;SDS011;22458;45.328;9.514;2022-12-07T09:00:39;36.25;;;18.52;;
36423;SDS011;22458;45.328;9.514;2022-12-07T09:03:05;35.83;;;17.85;;
36423;SDS011;22458;45.328;9.514;2022-12-07T09:05:31;29.25;;;15.85;;
36423;SDS011;22458;45.328;9.514;2022-12-07T09:07:59;36.50;;;17.75;;
36423;SDS011;22458;45.328;9.514;2022-12-07T09:10:26;33.45;;;17.35;;
36423;SDS011;22458;45.328;9.514;2022-12-07T09:12:52;35.15;;;17.38;;
36423;SDS011;22458;45.328;9.514;2022-12-07T09:15:18;29.02;;;15.77;;
36423;SDS011;22458;45.328;9.514;2022-12-07T09:17:44;31.60;;;15.75;;
36423;SDS011;22458;45.328;9.514;2022-12-07T09:20:10;33.90;;;17.65;;
36423;SDS011;22458;45.328;9.514;2022-12-07T09:22:36;27.23;;;15.48;;
36423;SDS011;22458;45.328;9.514;2022-12-07T09:25:02;32.47;;;17.90;;
36423;SDS011;22458;45.328;9.514;2022-12-07T09:27:29;32.33;;;16.73;;
36423;SDS011;22458;45.328;9.514;2022-12-07T09:29:56;35.97;;;18.58;;
36423;SDS011;22458;45.328;9.514;2022-12-07T09:32:22;35.97;;;17.42;;
36423;SDS011;22458;45.328;9.514;2022-12-07T09:34:48;35.17;;;16.23;;
36423;SDS011;22458;45.328;9.514;2022-12-07T09:37:14;33.40;;;17.20;;
36423;SDS011;22458;45.328;9.514;2022-12-07T09:39:40;37.28;;;17.17;;
36423;SDS011;22458;45.328;9.514;2022-12-07T09:42:06;37.00;;;17.15;;
36423;SDS011;22458;45.328;9.514;2022-12-07T09:44:33;36.13;;;18.08;;
36423;SDS011;22458;45.328;9.514;2022-12-07T09:47:00;39.33;;;17.80;;
36423;SDS011;22458;45.328;9.514;2022-12-07T09:49:28;38.60;;;17.17;;
36423;SDS011;22458;45.328;9.514;2022-12-07T09:54:29;39.35;;;18.05;;
36423;SDS011;22458;45.328;9.514;2022-12-07T09:56:56;37.95;;;19.27;;
36423;SDS011;22458;45.328;9.514;2022-12-07T09:59:22;37.70;;;19.58;;
36423;SDS011;22458;45.328;9.514;2022-12-07T10:01:48;38.22;;;18.55;;
36423;SDS011;22458;45.328;9.514;2022-12-07T10:04:24;36.88;;;18.67;;
36423;SDS011;22458;45.328;9.514;2022-12-07T10:06:50;36.80;;;18.48;;
36423;SDS011;22458;45.328;9.514;2022-12-07T10:09:17;43.72;;;19.15;;
36423;SDS011;22458;45.328;9.514;2022-12-07T10:14:51;32.63;;;16.95;;
36423;SDS011;22458;45.328;9.514;2022-12-07T10:20:02;30.67;;;17.02;;
36423;SDS011;22458;45.328;9.514;2022-12-07T10:22:37;30.92;;;16.38;;
36423;SDS011;22458;45.328;9.514;2022-12-07T10:25:18;33.10;;;17.58;;
36423;SDS011;22458;45.328;9.514;2022-12-07T10:27:57;29.42;;;16.55;;
36423;SDS011;22458;45.328;9.514;2022-12-07T10:30:50;36.13;;;17.52;;
36423;SDS011;22458;45.328;9.514;2022-12-07T10:33:35;33.38;;;17.58;;
36423;SDS011;22458;45.328;9.514;2022-12-07T10:36:17;33.60;;;17.20;;
36423;SDS011;22458;45.328;9.514;2022-12-07T10:39:00;36.08;;;19.58;;
36423;SDS011;22458;45.328;9.514;2022-12-07T10:41:28;30.88;;;18.10;;
36423;SDS011;22458;45.328;9.514;2022-12-07T10:43:55;31.38;;;17.92;;
36423;SDS011;22458;45.328;9.514;2022-12-07T10:46:37;29.17;;;17.55;;
36423;SDS011;22458;45.328;9.514;2022-12-07T10:57:10;34.75;;;18.58;;
36423;SDS011;22458;45.328;9.514;2022-12-07T11:10:08;37.65;;;20.08;;
36423;SDS011;22458;45.328;9.514;2022-12-07T11:23:42;34.80;;;18.52;;
36423;SDS011;22458;45.328;9.514;2022-12-07T11:26:14;42.30;;;19.65;;
36423;SDS011;22458;45.328;9.514;2022-12-07T11:36:53;42.55;;;22.10;;
36423;SDS011;22458;45.328;9.514;2022-12-07T11:41:48;45.25;;;22.55;;
36423;SDS011;22458;45.328;9.514;2022-12-07T11:46:54;42.33;;;21.60;;
36423;SDS011;22458;45.328;9.514;2022-12-07T11:49:45;42.67;;;20.58;;
36423;SDS011;22458;45.328;9.514;2022-12-07T11:52:30;45.70;;;22.13;;
36423;SDS011;22458;45.328;9.514;2022-12-07T11:55:17;38.58;;;20.00;;
36423;SDS011;22458;45.328;9.514;2022-12-07T11:57:48;40.97;;;22.48;;
36423;SDS011;22458;45.328;9.514;2022-12-07T12:00:23;45.08;;;21.58;;
36423;SDS011;22458;45.328;9.514;2022-12-07T12:02:52;38.83;;;21.63;;
36423;SDS011;22458;45.328;9.514;2022-12-07T12:05:29;42.22;;;21.63;;
36423;SDS011;22458;45.328;9.514;2022-12-07T12:07:59;41.45;;;21.63;;
36423;SDS011;22458;45.328;9.514;2022-12-07T12:10:37;43.95;;;22.10;;
36423;SDS011;22458;45.328;9.514;2022-12-07T12:16:59;42.83;;;21.85;;
36423;SDS011;22458;45.328;9.514;2022-12-07T12:24:39;41.70;;;21.55;;
36423;SDS011;22458;45.328;9.514;2022-12-07T12:27:08;40.38;;;22.15;;
36423;SDS011;22458;45.328;9.514;2022-12-07T12:29:41;37.10;;;20.63;;
36423;SDS011;22458;45.328;9.514;2022-12-07T12:32:16;37.47;;;20.75;;
36423;SDS011;22458;45.328;9.514;2022-12-07T12:34:59;35.83;;;20.52;;
36423;SDS011;22458;45.328;9.514;2022-12-07T12:37:45;33.70;;;20.98;;
36423;SDS011;22458;45.328;9.514;2022-12-07T12:42:44;39.85;;;23.35;;
36423;SDS011;22458;45.328;9.514;2022-12-07T12:45:31;42.72;;;22.55;;
36423;SDS011;22458;45.328;9.514;2022-12-07T12:47:58;40.90;;;22.33;;
36423;SDS011;22458;45.328;9.514;2022-12-07T12:55:20;45.33;;;23.85;;
36423;SDS011;22458;45.328;9.514;2022-12-07T13:04:00;39.58;;;23.17;;
36423;SDS011;22458;45.328;9.514;2022-12-07T13:08:54;38.83;;;22.17;;
36423;SDS011;22458;45.328;9.514;2022-12-07T13:11:37;39.42;;;22.85;;
36423;SDS011;22458;45.328;9.514;2022-12-07T13:17:04;40.15;;;22.75;;
36423;SDS011;22458;45.328;9.514;2022-12-07T13:19:54;42.50;;;22.73;;
36423;SDS011;22458;45.328;9.514;2022-12-07T13:25:07;40.30;;;22.92;;
36423;SDS011;22458;45.328;9.514;2022-12-07T13:27:40;40.08;;;22.30;;
36423;SDS011;22458;45.328;9.514;2022-12-07T13:30:12;43.08;;;22.30;;
36423;SDS011;22458;45.328;9.514;2022-12-07T13:32:50;39.83;;;22.52;;
36423;SDS011;22458;45.328;9.514;2022-12-07T13:35:33;39.55;;;21.83;;
36423;SDS011;22458;45.328;9.514;2022-12-07T13:38:03;39.78;;;21.95;;
36423;SDS011;22458;45.328;9.514;2022-12-07T13:40:40;39.35;;;21.75;;
36423;SDS011;22458;45.328;9.514;2022-12-07T13:43:12;47.67;;;23.52;;
36423;SDS011;22458;45.328;9.514;2022-12-07T13:45:41;43.75;;;22.67;;
36423;SDS011;22458;45.328;9.514;2022-12-07T13:48:14;40.78;;;22.17;;
36423;SDS011;22458;45.328;9.514;2022-12-07T13:50:53;40.67;;;21.98;;
36423;SDS011;22458;45.328;9.514;2022-12-07T13:53:20;40.97;;;20.95;;
36423;SDS011;22458;45.328;9.514;2022-12-07T13:55:46;39.20;;;20.35;;
36423;SDS011;22458;45.328;9.514;2022-12-07T13:58:13;37.83;;;21.15;;
36423;SDS011;22458;45.328;9.514;2022-12-07T14:00:39;36.58;;;22.38;;
36423;SDS011;22458;45.328;9.514;2022-12-07T14:05:38;36.28;;;21.60;;
36423;SDS011;22458;45.328;9.514;2022-12-07T14:10:36;37.72;;;22.25;;
36423;SDS011;22458;45.328;9.514;2022-12-07T14:15:55;37.42;;;21.00;;
36423;SDS011;22458;45.328;9.514;2022-12-07T14:18:28;37.05;;;21.13;;
36423;SDS011;22458;45.328;9.514;2022-12-07T14:21:32;37.90;;;21.90;;
36423;SDS011;22458;45.328;9.514;2022-12-07T14:26:35;41.38;;;21.70;;
36423;SDS011;22458;45.328;9.514;2022-12-07T14:31:51;38.20;;;22.02;;
36423;SDS011;22458;45.328;9.514;2022-12-07T14:34:21;40.50;;;22.67;;
36423;SDS011;22458;45.328;9.514;2022-12-07T14:36:48;48.53;;;24.55;;
36423;SDS011;22458;45.328;9.514;2022-12-07T14:39:14;39.75;;;21.65;;
36423;SDS011;22458;45.328;9.514;2022-12-07T14:41:40;42.63;;;22.25;;
36423;SDS011;22458;45.328;9.514;2022-12-07T14:44:22;39.70;;;22.65;;
36423;SDS011;22458;45.328;9.514;2022-12-07T14:46:49;42.38;;;22.58;;
36423;SDS011;22458;45.328;9.514;2022-12-07T14:49:15;43.25;;;22.60;;
36423;SDS011;22458;45.328;9.514;2022-12-07T14:51:42;38.00;;;22.08;;
36423;SDS011;22458;45.328;9.514;2022-12-07T14:54:19;42.45;;;23.90;;
36423;SDS011;22458;45.328;9.514;2022-12-07T14:56:47;38.83;;;23.10;;
36423;SDS011;22458;45.328;9.514;2022-12-07T14:59:16;39.90;;;22.48;;
36423;SDS011;22458;45.328;9.514;2022-12-07T15:01:43;41.00;;;23.50;;
36423;SDS011;22458;45.328;9.514;2022-12-07T15:04:09;39.72;;;21.88;;
36423;SDS011;22458;45.328;9.514;2022-12-07T15:06:35;40.75;;;22.75;;
36423;SDS011;22458;45.328;9.514;2022-12-07T15:09:01;37.00;;;23.25;;
36423;SDS011;22458;45.328;9.514;2022-12-07T15:11:27;39.03;;;23.95;;
36423;SDS011;22458;45.328;9.514;2022-12-07T15:13:53;41.35;;;23.30;;
36423;SDS011;22458;45.328;9.514;2022-12-07T15:16:37;37.95;;;22.20;;
36423;SDS011;22458;45.328;9.514;2022-12-07T15:19:14;37.67;;;22.45;;
36423;SDS011;22458;45.328;9.514;2022-12-07T15:21:45;34.80;;;20.02;;
36423;SDS011;22458;45.328;9.514;2022-12-07T15:24:11;35.40;;;21.45;;
36423;SDS011;22458;45.328;9.514;2022-12-07T15:26:38;40.13;;;21.85;;
36423;SDS011;22458;45.328;9.514;2022-12-07T15:29:05;35.40;;;22.75;;
36423;SDS011;22458;45.328;9.514;2022-12-07T15:31:32;38.03;;;23.13;;
36423;SDS011;22458;45.328;9.514;2022-12-07T15:34:14;36.60;;;23.02;;
36423;SDS011;22458;45.328;9.514;2022-12-07T15:43:10;36.25;;;22.13;;
36423;SDS011;22458;45.328;9.514;2022-12-07T15:45:56;39.33;;;23.95;;
36423;SDS011;22458;45.328;9.514;2022-12-07T15:48:22;37.55;;;21.95;;
36423;SDS011;22458;45.328;9.514;2022-12-07T15:50:48;35.28;;;21.85;;
36423;SDS011;22458;45.328;9.514;2022-12-07T15:53:14;35.58;;;22.38;;
36423;SDS011;22458;45.328;9.514;2022-12-07T15:55:39;40.15;;;23.20;;
36423;SDS011;22458;45.328;9.514;2022-12-07T15:58:06;37.15;;;23.42;;
36423;SDS011;22458;45.328;9.514;2022-12-07T16:00:32;39.95;;;22.88;;
36423;SDS011;22458;45.328;9.514;2022-12-07T16:02:58;39.22;;;23.35;;
36423;SDS011;22458;45.328;9.514;2022-12-07T16:05:23;40.63;;;23.55;;
36423;SDS011;22458;45.328;9.514;2022-12-07T16:07:49;38.70;;;22.38;;
36423;SDS011;22458;45.328;9.514;2022-12-07T16:10:15;40.05;;;22.38;;
36423;SDS011;22458;45.328;9.514;2022-12-07T16:12:41;32.88;;;20.65;;
36423;SDS011;22458;45.328;9.514;2022-12-07T16:15:07;39.83;;;23.27;;
36423;SDS011;22458;45.328;9.514;2022-12-07T16:17:33;34.90;;;22.70;;
36423;SDS011;22458;45.328;9.514;2022-12-07T16:19:59;37.28;;;21.52;;
36423;SDS011;22458;45.328;9.514;2022-12-07T16:22:25;37.95;;;21.05;;
36423;SDS011;22458;45.328;9.514;2022-12-07T16:24:50;36.92;;;21.13;;
36423;SDS011;22458;45.328;9.514;2022-12-07T16:27:16;39.95;;;23.38;;
36423;SDS011;22458;45.328;9.514;2022-12-07T16:29:42;38.13;;;22.77;;
36423;SDS011;22458;45.328;9.514;2022-12-07T16:32:07;33.55;;;22.08;;
36423;SDS011;22458;45.328;9.514;2022-12-07T16:34:33;39.17;;;22.88;;
36423;SDS011;22458;45.328;9.514;2022-12-07T16:36:59;37.95;;;21.45;;
36423;SDS011;22458;45.328;9.514;2022-12-07T16:39:25;42.22;;;25.38;;
36423;SDS011;22458;45.328;9.514;2022-12-07T16:41:50;37.38;;;23.45;;
36423;SDS011;22458;45.328;9.514;2022-12-07T16:44:17;41.42;;;23.08;;
36423;SDS011;22458;45.328;9.514;2022-12-07T16:46:43;37.08;;;22.92;;
36423;SDS011;22458;45.328;9.514;2022-12-07T16:49:11;36.80;;;22.17;;
36423;SDS011;22458;45.328;9.514;2022-12-07T16:51:40;34.10;;;20.90;;
36423;SDS011;22458;45.328;9.514;2022-12-07T16:54:11;35.88;;;22.00;;
36423;SDS011;22458;45.328;9.514;2022-12-07T16:56:37;38.83;;;21.73;;
36423;SDS011;22458;45.328;9.514;2022-12-07T16:59:04;37.72;;;22.38;;
36423;SDS011;22458;45.328;9.514;2022-12-07T17:01:29;37.70;;;23.30;;
36423;SDS011;22458;45.328;9.514;2022-12-07T17:03:56;38.97;;;22.33;;
36423;SDS011;22458;45.328;9.514;2022-12-07T17:06:24;35.72;;;22.42;;
36423;SDS011;22458;45.328;9.514;2022-12-07T17:08:52;34.90;;;22.10;;
36423;SDS011;22458;45.328;9.514;2022-12-07T17:11:28;36.53;;;21.75;;